Dn Vatan — TCZN6 — position and weather

sailwx.info

Track history (hours):
 
Tides and Currents Weather Stations Pressure Air Temp Water Temp Dewpoint Dewpoint Depression Visibility Wind Speed Wind Dir Waves Ship Positions

Dn Vatan

Last reported at 2017-Apr-29 09:49 UTC. Time now 2017-Apr-29 13:47 UTC.
Position N 05°11' W 004°03'.

Length 196 m; draft 6.6 m.

Type: Cargo ship. MMSI: 270991365.

Date/timePositionNaut miles runAvg speedWind from/ knotsBaromVisibWave heightAir tempDewpointWater temp
2017-Apr-29 09:49N 05°11' W 004°03'0 0.9
2017-Apr-29 09:16N 05°11' W 004°03'  
2017-Apr-26 17:30N 07°05' W 015°46'713.6
2017-Apr-26 17:00N 07°09' W 015°51'713.4
2017-Apr-26 16:30N 07°14' W 015°56'713.6
2017-Apr-26 16:00N 07°19' W 016°01'713.7
2017-Apr-26 15:30N 07°23' W 016°06'713.9
2017-Apr-26 15:00N 07°28' W 016°11'714.0
2017-Apr-26 14:30N 07°33' W 016°16'31513.5
2017-Apr-25 15:06N 12°11' W 018°47'313.9
2017-Apr-25 14:55N 12°13' W 018°48'6813.7
2017-Apr-25 09:59N 13°19' W 019°04'1213.4
2017-Apr-25 09:03N 13°31' W 019°07'113.3
2017-Apr-25 09:00N 13°32' W 019°07'  
2017-Apr-22 10:24N 27°44' W 013°55'2513.9
2017-Apr-22 08:35N 28°05' W 013°38'213.8
2017-Apr-22 08:24N 28°07' W 013°37'1613.9
2017-Apr-22 07:16N 28°21' W 013°28'1214.3
2017-Apr-22 06:24N 28°31' W 013°20'614.1
2017-Apr-22 05:59N 28°36' W 013°17'714.3
2017-Apr-22 05:31N 28°42' W 013°13'56712.4
2017-Apr-20 07:45N 37°43' W 009°47'312.1
2017-Apr-20 07:29N 37°46' W 009°46'612.2
2017-Apr-20 07:00N 37°51' W 009°44'612.4
2017-Apr-20 06:30N 37°57' W 009°42'612.5
2017-Apr-20 06:01N 38°03' W 009°39'713.2
2017-Apr-20 05:30N 38°10' W 009°37'713.7
2017-Apr-20 05:00N 38°16' W 009°34'713.9
2017-Apr-20 04:30N 38°23' W 009°31'713.7
2017-Apr-20 04:00N 38°29' W 009°29'612.1
2017-Apr-20 03:30N 38°35' W 009°25'4 7.9
2017-Apr-20 03:00N 38°38' W 009°22'510.9
2017-Apr-20 02:30N 38°41' W 009°17'611.6
2017-Apr-20 02:00N 38°42' W 009°09'2 4.0
2017-Apr-20 01:30N 38°42' W 009°07'0 0.1
2017-Apr-20 00:58N 38°42' W 009°07'0 0.0
2017-Apr-20 00:28N 38°42' W 009°07'0 0.0
2017-Apr-19 23:58N 38°42' W 009°07'0 0.0
2017-Apr-19 23:28N 38°42' W 009°07'0 0.2
2017-Apr-19 22:52N 38°42' W 009°07'0 0.2
2017-Apr-19 22:28N 38°42' W 009°07'0 0.1
2017-Apr-19 21:58N 38°42' W 009°07'0 0.1
2017-Apr-19 21:28N 38°42' W 009°07'0 0.0
2017-Apr-19 20:58N 38°42' W 009°07'0 0.0
2017-Apr-19 20:22N 38°42' W 009°07'0 0.0
2017-Apr-19 19:58N 38°42' W 009°07'0 0.0
2017-Apr-19 19:28N 38°42' W 009°07'0 0.0
2017-Apr-19 18:55N 38°42' W 009°07'0 0.0
2017-Apr-19 18:25N 38°42' W 009°07'0 0.0
2017-Apr-19 17:58N 38°42' W 009°07'0 0.0
2017-Apr-19 17:28N 38°42' W 009°07'0 0.0
2017-Apr-19 16:58N 38°42' W 009°07'0 0.0
2017-Apr-19 16:28N 38°42' W 009°07'0 0.0
2017-Apr-19 15:58N 38°42' W 009°07'0 0.0
2017-Apr-19 15:25N 38°42' W 009°07'0 0.0
2017-Apr-19 14:58N 38°42' W 009°07'0 0.1
2017-Apr-19 14:28N 38°42' W 009°07'0 0.2
2017-Apr-19 13:25N 38°42' W 009°07'0 0.1
2017-Apr-19 12:58N 38°42' W 009°07'0 0.1
2017-Apr-19 12:28N 38°42' W 009°07'0 0.0
2017-Apr-19 11:58N 38°42' W 009°07'0 0.0
2017-Apr-19 11:25N 38°42' W 009°07'0 0.0
2017-Apr-19 10:58N 38°42' W 009°07'0 0.1
2017-Apr-19 10:28N 38°42' W 009°07'0 0.1
2017-Apr-19 09:58N 38°42' W 009°07'  
Track history (hours):
 
Tides and Currents Weather Stations Pressure Air Temp Water Temp Dewpoint Dewpoint Depression Visibility Wind Speed Wind Dir Waves Ship Positions

Dn Vatan

Last reported at 2017-Apr-29 09:49 UTC. Time now 2017-Apr-29 13:47 UTC.
Position N 05°11' W 004°03'.

Length 196 m; draft 6.6 m.

Type: Cargo ship. MMSI: 270991365.

Date/timePositionNaut miles runAvg speedWind from/ knotsBaromVisibWave heightAir tempDewpointWater temp
2017-Apr-29 09:49N 05°11' W 004°03'0 0.9
2017-Apr-29 09:16N 05°11' W 004°03'  
2017-Apr-26 17:30N 07°05' W 015°46'713.6
2017-Apr-26 17:00N 07°09' W 015°51'713.4
2017-Apr-26 16:30N 07°14' W 015°56'713.6
2017-Apr-26 16:00N 07°19' W 016°01'713.7
2017-Apr-26 15:30N 07°23' W 016°06'713.9
2017-Apr-26 15:00N 07°28' W 016°11'714.0
2017-Apr-26 14:30N 07°33' W 016°16'31513.5
2017-Apr-25 15:06N 12°11' W 018°47'313.9
2017-Apr-25 14:55N 12°13' W 018°48'6813.7
2017-Apr-25 09:59N 13°19' W 019°04'1213.4
2017-Apr-25 09:03N 13°31' W 019°07'113.3
2017-Apr-25 09:00N 13°32' W 019°07'  
2017-Apr-22 10:24N 27°44' W 013°55'2513.9
2017-Apr-22 08:35N 28°05' W 013°38'213.8
2017-Apr-22 08:24N 28°07' W 013°37'1613.9
2017-Apr-22 07:16N 28°21' W 013°28'1214.3
2017-Apr-22 06:24N 28°31' W 013°20'614.1
2017-Apr-22 05:59N 28°36' W 013°17'714.3
2017-Apr-22 05:31N 28°42' W 013°13'56712.4
2017-Apr-20 07:45N 37°43' W 009°47'312.1
2017-Apr-20 07:29N 37°46' W 009°46'612.2
2017-Apr-20 07:00N 37°51' W 009°44'612.4
2017-Apr-20 06:30N 37°57' W 009°42'612.5
2017-Apr-20 06:01N 38°03' W 009°39'713.2
2017-Apr-20 05:30N 38°10' W 009°37'713.7
2017-Apr-20 05:00N 38°16' W 009°34'713.9
2017-Apr-20 04:30N 38°23' W 009°31'713.7
2017-Apr-20 04:00N 38°29' W 009°29'612.1
2017-Apr-20 03:30N 38°35' W 009°25'4 7.9
2017-Apr-20 03:00N 38°38' W 009°22'510.9
2017-Apr-20 02:30N 38°41' W 009°17'611.6
2017-Apr-20 02:00N 38°42' W 009°09'2 4.0
2017-Apr-20 01:30N 38°42' W 009°07'0 0.1
2017-Apr-20 00:58N 38°42' W 009°07'0 0.0
2017-Apr-20 00:28N 38°42' W 009°07'0 0.0
2017-Apr-19 23:58N 38°42' W 009°07'0 0.0
2017-Apr-19 23:28N 38°42' W 009°07'0 0.2
2017-Apr-19 22:52N 38°42' W 009°07'0 0.2
2017-Apr-19 22:28N 38°42' W 009°07'0 0.1
2017-Apr-19 21:58N 38°42' W 009°07'0 0.1
2017-Apr-19 21:28N 38°42' W 009°07'0 0.0
2017-Apr-19 20:58N 38°42' W 009°07'0 0.0
2017-Apr-19 20:22N 38°42' W 009°07'0 0.0
2017-Apr-19 19:58N 38°42' W 009°07'0 0.0
2017-Apr-19 19:28N 38°42' W 009°07'0 0.0
2017-Apr-19 18:55N 38°42' W 009°07'0 0.0
2017-Apr-19 18:25N 38°42' W 009°07'0 0.0
2017-Apr-19 17:58N 38°42' W 009°07'0 0.0
2017-Apr-19 17:28N 38°42' W 009°07'0 0.0
2017-Apr-19 16:58N 38°42' W 009°07'0 0.0
2017-Apr-19 16:28N 38°42' W 009°07'0 0.0
2017-Apr-19 15:58N 38°42' W 009°07'0 0.0
2017-Apr-19 15:25N 38°42' W 009°07'0 0.0
2017-Apr-19 14:58N 38°42' W 009°07'0 0.1
2017-Apr-19 14:28N 38°42' W 009°07'0 0.2
2017-Apr-19 13:25N 38°42' W 009°07'0 0.1
2017-Apr-19 12:58N 38°42' W 009°07'0 0.1
2017-Apr-19 12:28N 38°42' W 009°07'0 0.0
2017-Apr-19 11:58N 38°42' W 009°07'0 0.0
2017-Apr-19 11:25N 38°42' W 009°07'0 0.0
2017-Apr-19 10:58N 38°42' W 009°07'0 0.1
2017-Apr-19 10:28N 38°42' W 009°07'0 0.1
2017-Apr-19 09:58N 38°42' W 009°07'  

Dump ship's entire track history